sensor_id;sensor_type;location;lat;lon;timestamp;P1;durP1;ratioP1;P2;durP2;ratioP2
55537;SDS011;41383;51.418;7.286;2022-07-23T00:02:18;24.33;;;12.82;;
55537;SDS011;41383;51.418;7.286;2022-07-23T00:04:43;16.92;;;9.45;;
55537;SDS011;41383;51.418;7.286;2022-07-23T00:07:09;22.77;;;12.37;;
55537;SDS011;41383;51.418;7.286;2022-07-23T00:09:34;23.80;;;11.90;;
55537;SDS011;41383;51.418;7.286;2022-07-23T00:11:59;18.70;;;10.93;;
55537;SDS011;41383;51.418;7.286;2022-07-23T00:14:24;22.67;;;14.98;;
55537;SDS011;41383;51.418;7.286;2022-07-23T00:16:50;23.00;;;13.13;;
55537;SDS011;41383;51.418;7.286;2022-07-23T00:19:15;21.88;;;11.90;;
55537;SDS011;41383;51.418;7.286;2022-07-23T00:21:40;25.05;;;11.35;;
55537;SDS011;41383;51.418;7.286;2022-07-23T00:24:06;19.88;;;10.70;;
55537;SDS011;41383;51.418;7.286;2022-07-23T00:26:31;23.95;;;9.93;;
55537;SDS011;41383;51.418;7.286;2022-07-23T00:28:56;23.20;;;11.52;;
55537;SDS011;41383;51.418;7.286;2022-07-23T00:31:22;22.70;;;12.40;;
55537;SDS011;41383;51.418;7.286;2022-07-23T00:33:47;18.73;;;10.23;;
55537;SDS011;41383;51.418;7.286;2022-07-23T00:36:12;20.77;;;11.47;;
55537;SDS011;41383;51.418;7.286;2022-07-23T00:38:37;19.95;;;11.85;;
55537;SDS011;41383;51.418;7.286;2022-07-23T00:41:03;18.80;;;11.60;;
55537;SDS011;41383;51.418;7.286;2022-07-23T00:43:28;21.05;;;11.60;;
55537;SDS011;41383;51.418;7.286;2022-07-23T00:45:53;20.10;;;11.43;;
55537;SDS011;41383;51.418;7.286;2022-07-23T00:48:19;18.53;;;10.57;;
55537;SDS011;41383;51.418;7.286;2022-07-23T00:50:44;23.23;;;13.73;;
55537;SDS011;41383;51.418;7.286;2022-07-23T00:53:10;21.88;;;11.45;;
55537;SDS011;41383;51.418;7.286;2022-07-23T00:55:36;20.15;;;10.50;;
55537;SDS011;41383;51.418;7.286;2022-07-23T00:58:02;18.55;;;11.30;;
55537;SDS011;41383;51.418;7.286;2022-07-23T01:00:27;22.20;;;11.43;;
55537;SDS011;41383;51.418;7.286;2022-07-23T01:02:53;19.92;;;11.85;;
55537;SDS011;41383;51.418;7.286;2022-07-23T01:05:18;21.60;;;12.00;;
55537;SDS011;41383;51.418;7.286;2022-07-23T01:07:47;21.10;;;12.70;;
55537;SDS011;41383;51.418;7.286;2022-07-23T01:10:15;26.00;;;12.82;;
55537;SDS011;41383;51.418;7.286;2022-07-23T01:12:56;25.80;;;12.77;;
55537;SDS011;41383;51.418;7.286;2022-07-23T01:15:23;23.60;;;13.48;;
55537;SDS011;41383;51.418;7.286;2022-07-23T01:17:48;26.40;;;16.75;;
55537;SDS011;41383;51.418;7.286;2022-07-23T01:20:15;25.50;;;13.48;;
55537;SDS011;41383;51.418;7.286;2022-07-23T01:22:40;27.67;;;13.77;;
55537;SDS011;41383;51.418;7.286;2022-07-23T01:25:06;22.75;;;14.75;;
55537;SDS011;41383;51.418;7.286;2022-07-23T01:27:31;28.92;;;14.57;;
55537;SDS011;41383;51.418;7.286;2022-07-23T01:29:57;32.80;;;15.47;;
55537;SDS011;41383;51.418;7.286;2022-07-23T01:32:24;29.95;;;17.33;;
55537;SDS011;41383;51.418;7.286;2022-07-23T01:34:49;28.85;;;16.33;;
55537;SDS011;41383;51.418;7.286;2022-07-23T01:37:15;24.42;;;14.68;;
55537;SDS011;41383;51.418;7.286;2022-07-23T01:39:40;23.33;;;14.53;;
55537;SDS011;41383;51.418;7.286;2022-07-23T01:42:05;27.57;;;13.77;;
55537;SDS011;41383;51.418;7.286;2022-07-23T01:44:31;24.77;;;14.23;;
55537;SDS011;41383;51.418;7.286;2022-07-23T01:46:56;29.50;;;16.43;;
55537;SDS011;41383;51.418;7.286;2022-07-23T01:49:21;26.13;;;13.52;;
55537;SDS011;41383;51.418;7.286;2022-07-23T01:51:47;36.28;;;16.80;;
55537;SDS011;41383;51.418;7.286;2022-07-23T01:54:27;26.92;;;15.25;;
55537;SDS011;41383;51.418;7.286;2022-07-23T01:56:54;32.10;;;15.77;;
55537;SDS011;41383;51.418;7.286;2022-07-23T01:59:20;29.20;;;16.10;;
55537;SDS011;41383;51.418;7.286;2022-07-23T02:01:46;28.65;;;16.15;;
55537;SDS011;41383;51.418;7.286;2022-07-23T02:04:11;27.52;;;15.25;;
55537;SDS011;41383;51.418;7.286;2022-07-23T02:06:37;25.67;;;14.13;;
55537;SDS011;41383;51.418;7.286;2022-07-23T02:09:02;30.63;;;15.33;;
55537;SDS011;41383;51.418;7.286;2022-07-23T02:11:27;31.15;;;16.23;;
55537;SDS011;41383;51.418;7.286;2022-07-23T02:13:52;35.10;;;16.38;;
55537;SDS011;41383;51.418;7.286;2022-07-23T02:16:18;33.70;;;18.45;;
55537;SDS011;41383;51.418;7.286;2022-07-23T02:18:43;30.08;;;16.02;;
55537;SDS011;41383;51.418;7.286;2022-07-23T02:21:09;38.50;;;17.02;;
55537;SDS011;41383;51.418;7.286;2022-07-23T02:23:34;32.97;;;16.80;;
55537;SDS011;41383;51.418;7.286;2022-07-23T02:26:00;27.23;;;15.00;;
55537;SDS011;41383;51.418;7.286;2022-07-23T02:28:25;39.35;;;19.52;;
55537;SDS011;41383;51.418;7.286;2022-07-23T02:30:50;29.65;;;17.98;;
55537;SDS011;41383;51.418;7.286;2022-07-23T02:33:16;32.38;;;15.38;;
55537;SDS011;41383;51.418;7.286;2022-07-23T02:35:41;29.48;;;16.52;;
55537;SDS011;41383;51.418;7.286;2022-07-23T02:38:06;38.20;;;22.03;;
55537;SDS011;41383;51.418;7.286;2022-07-23T02:40:32;47.53;;;21.83;;
55537;SDS011;41383;51.418;7.286;2022-07-23T02:42:57;39.25;;;21.45;;
55537;SDS011;41383;51.418;7.286;2022-07-23T02:45:22;44.13;;;18.67;;
55537;SDS011;41383;51.418;7.286;2022-07-23T02:47:48;31.25;;;18.75;;
55537;SDS011;41383;51.418;7.286;2022-07-23T02:50:13;33.30;;;16.93;;
55537;SDS011;41383;51.418;7.286;2022-07-23T02:52:38;42.15;;;18.33;;
55537;SDS011;41383;51.418;7.286;2022-07-23T02:55:04;39.55;;;20.13;;
55537;SDS011;41383;51.418;7.286;2022-07-23T02:57:30;25.00;;;13.73;;
55537;SDS011;41383;51.418;7.286;2022-07-23T02:59:55;31.03;;;16.77;;
55537;SDS011;41383;51.418;7.286;2022-07-23T03:02:21;29.02;;;16.73;;
55537;SDS011;41383;51.418;7.286;2022-07-23T03:04:46;25.65;;;15.05;;
55537;SDS011;41383;51.418;7.286;2022-07-23T03:07:11;26.30;;;14.98;;
55537;SDS011;41383;51.418;7.286;2022-07-23T03:09:37;31.27;;;15.45;;
55537;SDS011;41383;51.418;7.286;2022-07-23T03:12:02;32.27;;;17.30;;
55537;SDS011;41383;51.418;7.286;2022-07-23T03:14:28;28.15;;;16.05;;
55537;SDS011;41383;51.418;7.286;2022-07-23T03:16:53;30.47;;;16.73;;
55537;SDS011;41383;51.418;7.286;2022-07-23T03:19:19;27.20;;;15.00;;
55537;SDS011;41383;51.418;7.286;2022-07-23T03:21:44;37.85;;;18.35;;
55537;SDS011;41383;51.418;7.286;2022-07-23T03:24:10;34.47;;;17.20;;
55537;SDS011;41383;51.418;7.286;2022-07-23T03:26:35;46.83;;;21.08;;
55537;SDS011;41383;51.418;7.286;2022-07-23T03:29:01;25.40;;;15.20;;
55537;SDS011;41383;51.418;7.286;2022-07-23T03:31:28;39.65;;;19.23;;
55537;SDS011;41383;51.418;7.286;2022-07-23T03:33:54;40.20;;;19.00;;
55537;SDS011;41383;51.418;7.286;2022-07-23T03:36:19;36.07;;;18.70;;
55537;SDS011;41383;51.418;7.286;2022-07-23T03:38:44;39.80;;;19.23;;
55537;SDS011;41383;51.418;7.286;2022-07-23T03:41:09;38.57;;;18.30;;
55537;SDS011;41383;51.418;7.286;2022-07-23T03:43:35;28.77;;;14.70;;
55537;SDS011;41383;51.418;7.286;2022-07-23T03:46:00;29.07;;;16.13;;
55537;SDS011;41383;51.418;7.286;2022-07-23T03:48:25;28.38;;;16.65;;
55537;SDS011;41383;51.418;7.286;2022-07-23T03:50:51;29.00;;;17.88;;
55537;SDS011;41383;51.418;7.286;2022-07-23T03:53:16;32.97;;;15.70;;
55537;SDS011;41383;51.418;7.286;2022-07-23T03:55:41;48.30;;;21.00;;
55537;SDS011;41383;51.418;7.286;2022-07-23T03:58:06;36.60;;;16.67;;
55537;SDS011;41383;51.418;7.286;2022-07-23T04:00:32;29.83;;;18.08;;
55537;SDS011;41383;51.418;7.286;2022-07-23T04:02:57;38.72;;;19.80;;
55537;SDS011;41383;51.418;7.286;2022-07-23T04:05:22;41.92;;;20.20;;
55537;SDS011;41383;51.418;7.286;2022-07-23T04:07:48;28.02;;;16.33;;
55537;SDS011;41383;51.418;7.286;2022-07-23T04:10:13;31.80;;;15.27;;
55537;SDS011;41383;51.418;7.286;2022-07-23T04:12:38;50.73;;;16.97;;
55537;SDS011;41383;51.418;7.286;2022-07-23T04:15:04;39.33;;;17.17;;
55537;SDS011;41383;51.418;7.286;2022-07-23T04:17:31;56.00;;;20.40;;
55537;SDS011;41383;51.418;7.286;2022-07-23T04:19:57;37.33;;;14.87;;
55537;SDS011;41383;51.418;7.286;2022-07-23T04:22:22;66.22;;;18.52;;
55537;SDS011;41383;51.418;7.286;2022-07-23T04:24:47;33.77;;;17.23;;
55537;SDS011;41383;51.418;7.286;2022-07-23T04:27:14;35.50;;;18.35;;
55537;SDS011;41383;51.418;7.286;2022-07-23T04:29:39;80.40;;;22.33;;
55537;SDS011;41383;51.418;7.286;2022-07-23T04:32:04;43.13;;;19.40;;
55537;SDS011;41383;51.418;7.286;2022-07-23T04:34:30;33.47;;;17.75;;
55537;SDS011;41383;51.418;7.286;2022-07-23T04:36:55;37.13;;;17.37;;
55537;SDS011;41383;51.418;7.286;2022-07-23T04:39:20;51.08;;;20.35;;
55537;SDS011;41383;51.418;7.286;2022-07-23T04:41:46;158.52;;;27.42;;
55537;SDS011;41383;51.418;7.286;2022-07-23T04:44:11;33.10;;;14.77;;
55537;SDS011;41383;51.418;7.286;2022-07-23T04:46:36;109.57;;;22.33;;
55537;SDS011;41383;51.418;7.286;2022-07-23T04:49:02;61.30;;;15.80;;
55537;SDS011;41383;51.418;7.286;2022-07-23T04:51:27;62.27;;;20.73;;
55537;SDS011;41383;51.418;7.286;2022-07-23T04:53:53;87.28;;;20.70;;
55537;SDS011;41383;51.418;7.286;2022-07-23T04:56:19;83.47;;;18.35;;
55537;SDS011;41383;51.418;7.286;2022-07-23T04:58:44;95.90;;;17.37;;
55537;SDS011;41383;51.418;7.286;2022-07-23T05:01:10;51.83;;;14.05;;
55537;SDS011;41383;51.418;7.286;2022-07-23T05:03:35;194.40;;;25.48;;
55537;SDS011;41383;51.418;7.286;2022-07-23T05:06:00;45.97;;;17.42;;
55537;SDS011;41383;51.418;7.286;2022-07-23T05:08:26;111.10;;;18.95;;
55537;SDS011;41383;51.418;7.286;2022-07-23T05:10:51;28.05;;;16.02;;
55537;SDS011;41383;51.418;7.286;2022-07-23T05:13:17;36.38;;;14.27;;
55537;SDS011;41383;51.418;7.286;2022-07-23T05:15:43;28.63;;;14.40;;
55537;SDS011;41383;51.418;7.286;2022-07-23T05:18:09;41.85;;;18.80;;
55537;SDS011;41383;51.418;7.286;2022-07-23T05:20:34;21.13;;;12.98;;
55537;SDS011;41383;51.418;7.286;2022-07-23T05:22:59;21.10;;;11.40;;
55537;SDS011;41383;51.418;7.286;2022-07-23T05:25:25;23.65;;;13.52;;
55537;SDS011;41383;51.418;7.286;2022-07-23T05:27:50;39.10;;;16.38;;
55537;SDS011;41383;51.418;7.286;2022-07-23T05:30:16;27.10;;;16.13;;
55537;SDS011;41383;51.418;7.286;2022-07-23T05:32:41;34.05;;;18.05;;
55537;SDS011;41383;51.418;7.286;2022-07-23T05:35:06;52.50;;;19.75;;
55537;SDS011;41383;51.418;7.286;2022-07-23T05:37:32;43.53;;;18.95;;
55537;SDS011;41383;51.418;7.286;2022-07-23T05:40:02;31.27;;;18.13;;
55537;SDS011;41383;51.418;7.286;2022-07-23T05:42:29;28.05;;;15.60;;
55537;SDS011;41383;51.418;7.286;2022-07-23T05:44:54;43.88;;;22.65;;
55537;SDS011;41383;51.418;7.286;2022-07-23T05:47:19;41.70;;;21.07;;
55537;SDS011;41383;51.418;7.286;2022-07-23T05:49:44;36.37;;;18.23;;
55537;SDS011;41383;51.418;7.286;2022-07-23T05:52:10;30.67;;;18.30;;
55537;SDS011;41383;51.418;7.286;2022-07-23T05:54:35;35.30;;;18.43;;
55537;SDS011;41383;51.418;7.286;2022-07-23T05:57:00;36.70;;;21.15;;
55537;SDS011;41383;51.418;7.286;2022-07-23T05:59:26;42.45;;;21.23;;
55537;SDS011;41383;51.418;7.286;2022-07-23T06:01:51;43.80;;;23.20;;
55537;SDS011;41383;51.418;7.286;2022-07-23T06:04:16;32.20;;;20.30;;
55537;SDS011;41383;51.418;7.286;2022-07-23T06:06:42;38.07;;;21.03;;
55537;SDS011;41383;51.418;7.286;2022-07-23T06:09:07;39.00;;;20.13;;
55537;SDS011;41383;51.418;7.286;2022-07-23T06:11:32;38.80;;;22.60;;
55537;SDS011;41383;51.418;7.286;2022-07-23T06:13:58;37.28;;;18.92;;
55537;SDS011;41383;51.418;7.286;2022-07-23T06:16:23;32.40;;;19.23;;
55537;SDS011;41383;51.418;7.286;2022-07-23T06:18:48;35.17;;;21.33;;
55537;SDS011;41383;51.418;7.286;2022-07-23T06:21:13;32.17;;;20.63;;
55537;SDS011;41383;51.418;7.286;2022-07-23T06:23:39;28.60;;;17.90;;
55537;SDS011;41383;51.418;7.286;2022-07-23T06:26:04;33.03;;;17.23;;
55537;SDS011;41383;51.418;7.286;2022-07-23T06:28:29;27.52;;;18.00;;
55537;SDS011;41383;51.418;7.286;2022-07-23T06:30:54;35.20;;;21.73;;
55537;SDS011;41383;51.418;7.286;2022-07-23T06:33:20;31.73;;;18.93;;
55537;SDS011;41383;51.418;7.286;2022-07-23T06:35:45;34.78;;;18.52;;
55537;SDS011;41383;51.418;7.286;2022-07-23T06:38:10;30.65;;;19.95;;
55537;SDS011;41383;51.418;7.286;2022-07-23T06:40:36;33.22;;;18.23;;
55537;SDS011;41383;51.418;7.286;2022-07-23T06:43:01;37.33;;;20.38;;
55537;SDS011;41383;51.418;7.286;2022-07-23T06:45:26;33.33;;;19.57;;
55537;SDS011;41383;51.418;7.286;2022-07-23T06:47:52;32.42;;;18.23;;
55537;SDS011;41383;51.418;7.286;2022-07-23T06:50:17;32.90;;;18.83;;
55537;SDS011;41383;51.418;7.286;2022-07-23T06:52:42;30.80;;;19.80;;
55537;SDS011;41383;51.418;7.286;2022-07-23T06:55:08;33.72;;;20.70;;
55537;SDS011;41383;51.418;7.286;2022-07-23T06:57:34;35.15;;;19.83;;
55537;SDS011;41383;51.418;7.286;2022-07-23T06:59:59;32.13;;;18.60;;
55537;SDS011;41383;51.418;7.286;2022-07-23T07:02:24;29.57;;;17.70;;
55537;SDS011;41383;51.418;7.286;2022-07-23T07:04:50;30.07;;;20.27;;
55537;SDS011;41383;51.418;7.286;2022-07-23T07:07:15;31.02;;;18.23;;
55537;SDS011;41383;51.418;7.286;2022-07-23T07:09:40;31.90;;;20.17;;
55537;SDS011;41383;51.418;7.286;2022-07-23T07:12:05;35.53;;;17.73;;
55537;SDS011;41383;51.418;7.286;2022-07-23T07:14:31;32.53;;;18.83;;
55537;SDS011;41383;51.418;7.286;2022-07-23T07:16:56;28.73;;;17.08;;
55537;SDS011;41383;51.418;7.286;2022-07-23T07:19:21;27.00;;;16.90;;
55537;SDS011;41383;51.418;7.286;2022-07-23T07:21:47;33.93;;;18.93;;
55537;SDS011;41383;51.418;7.286;2022-07-23T07:24:12;30.30;;;17.00;;
55537;SDS011;41383;51.418;7.286;2022-07-23T07:26:37;31.20;;;19.67;;
55537;SDS011;41383;51.418;7.286;2022-07-23T07:29:04;29.42;;;20.13;;
55537;SDS011;41383;51.418;7.286;2022-07-23T07:31:29;26.95;;;17.10;;
55537;SDS011;41383;51.418;7.286;2022-07-23T07:33:55;35.43;;;19.53;;
55537;SDS011;41383;51.418;7.286;2022-07-23T07:36:21;31.13;;;20.27;;
55537;SDS011;41383;51.418;7.286;2022-07-23T07:38:47;39.13;;;19.20;;
55537;SDS011;41383;51.418;7.286;2022-07-23T07:41:12;29.70;;;18.00;;
55537;SDS011;41383;51.418;7.286;2022-07-23T07:43:38;38.97;;;20.13;;
55537;SDS011;41383;51.418;7.286;2022-07-23T07:46:03;29.57;;;19.23;;
55537;SDS011;41383;51.418;7.286;2022-07-23T07:48:29;29.02;;;18.00;;
55537;SDS011;41383;51.418;7.286;2022-07-23T07:50:54;28.42;;;16.77;;
55537;SDS011;41383;51.418;7.286;2022-07-23T07:53:20;33.72;;;18.20;;
55537;SDS011;41383;51.418;7.286;2022-07-23T07:55:45;26.60;;;17.98;;
55537;SDS011;41383;51.418;7.286;2022-07-23T07:58:10;30.42;;;19.33;;
55537;SDS011;41383;51.418;7.286;2022-07-23T08:00:36;27.67;;;19.43;;
55537;SDS011;41383;51.418;7.286;2022-07-23T08:03:01;29.08;;;17.33;;
55537;SDS011;41383;51.418;7.286;2022-07-23T08:05:27;27.37;;;17.43;;
55537;SDS011;41383;51.418;7.286;2022-07-23T08:07:57;31.90;;;18.80;;
55537;SDS011;41383;51.418;7.286;2022-07-23T08:10:24;29.08;;;17.92;;
55537;SDS011;41383;51.418;7.286;2022-07-23T08:12:52;38.65;;;17.90;;
55537;SDS011;41383;51.418;7.286;2022-07-23T08:15:19;29.60;;;19.05;;
55537;SDS011;41383;51.418;7.286;2022-07-23T08:17:47;28.15;;;18.25;;
55537;SDS011;41383;51.418;7.286;2022-07-23T08:20:14;28.02;;;17.85;;
55537;SDS011;41383;51.418;7.286;2022-07-23T08:25:21;26.15;;;17.40;;
55537;SDS011;41383;51.418;7.286;2022-07-23T08:27:49;23.75;;;17.08;;
55537;SDS011;41383;51.418;7.286;2022-07-23T08:30:14;25.27;;;17.25;;
55537;SDS011;41383;51.418;7.286;2022-07-23T08:35:15;26.15;;;15.85;;
55537;SDS011;41383;51.418;7.286;2022-07-23T08:37:41;20.63;;;14.00;;
55537;SDS011;41383;51.418;7.286;2022-07-23T08:40:07;25.65;;;16.83;;
55537;SDS011;41383;51.418;7.286;2022-07-23T08:42:33;26.45;;;16.10;;
55537;SDS011;41383;51.418;7.286;2022-07-23T08:45:00;26.95;;;14.88;;
55537;SDS011;41383;51.418;7.286;2022-07-23T08:47:27;18.70;;;14.35;;
55537;SDS011;41383;51.418;7.286;2022-07-23T08:49:53;22.63;;;15.75;;
55537;SDS011;41383;51.418;7.286;2022-07-23T08:52:18;24.88;;;15.27;;
55537;SDS011;41383;51.418;7.286;2022-07-23T08:54:44;19.65;;;13.63;;
55537;SDS011;41383;51.418;7.286;2022-07-23T08:57:09;18.60;;;14.02;;
55537;SDS011;41383;51.418;7.286;2022-07-23T08:59:34;21.65;;;13.90;;
55537;SDS011;41383;51.418;7.286;2022-07-23T09:02:00;20.23;;;14.60;;
55537;SDS011;41383;51.418;7.286;2022-07-23T09:04:25;25.67;;;14.25;;
55537;SDS011;41383;51.418;7.286;2022-07-23T09:06:51;19.60;;;13.95;;
55537;SDS011;41383;51.418;7.286;2022-07-23T09:09:19;20.90;;;15.82;;
55537;SDS011;41383;51.418;7.286;2022-07-23T09:11:46;22.35;;;16.05;;
55537;SDS011;41383;51.418;7.286;2022-07-23T09:14:12;20.55;;;14.43;;
55537;SDS011;41383;51.418;7.286;2022-07-23T09:16:37;22.30;;;14.43;;
55537;SDS011;41383;51.418;7.286;2022-07-23T09:19:03;19.10;;;14.18;;
55537;SDS011;41383;51.418;7.286;2022-07-23T09:21:34;20.30;;;14.98;;
55537;SDS011;41383;51.418;7.286;2022-07-23T09:24:04;23.17;;;14.85;;
55537;SDS011;41383;51.418;7.286;2022-07-23T09:26:36;16.40;;;13.27;;
55537;SDS011;41383;51.418;7.286;2022-07-23T09:31:51;18.42;;;14.43;;
55537;SDS011;41383;51.418;7.286;2022-07-23T09:34:20;18.85;;;16.38;;
55537;SDS011;41383;51.418;7.286;2022-07-23T09:36:46;22.10;;;15.77;;
55537;SDS011;41383;51.418;7.286;2022-07-23T09:39:13;16.65;;;14.02;;
55537;SDS011;41383;51.418;7.286;2022-07-23T09:41:42;20.63;;;13.07;;
55537;SDS011;41383;51.418;7.286;2022-07-23T09:44:14;18.63;;;14.77;;
55537;SDS011;41383;51.418;7.286;2022-07-23T09:46:41;14.98;;;11.27;;
55537;SDS011;41383;51.418;7.286;2022-07-23T09:51:46;19.25;;;12.68;;
55537;SDS011;41383;51.418;7.286;2022-07-23T09:57:05;21.17;;;16.55;;
55537;SDS011;41383;51.418;7.286;2022-07-23T09:59:39;19.77;;;16.15;;
55537;SDS011;41383;51.418;7.286;2022-07-23T10:02:06;21.17;;;18.00;;
55537;SDS011;41383;51.418;7.286;2022-07-23T10:04:33;20.17;;;15.98;;
55537;SDS011;41383;51.418;7.286;2022-07-23T10:07:00;18.30;;;15.75;;
55537;SDS011;41383;51.418;7.286;2022-07-23T10:09:28;20.33;;;17.38;;
55537;SDS011;41383;51.418;7.286;2022-07-23T10:11:56;22.70;;;17.55;;
55537;SDS011;41383;51.418;7.286;2022-07-23T10:14:30;18.95;;;15.93;;
55537;SDS011;41383;51.418;7.286;2022-07-23T10:16:57;22.10;;;14.93;;
55537;SDS011;41383;51.418;7.286;2022-07-23T10:19:23;16.27;;;13.73;;
55537;SDS011;41383;51.418;7.286;2022-07-23T10:21:51;17.70;;;14.45;;
55537;SDS011;41383;51.418;7.286;2022-07-23T10:37:41;16.03;;;13.27;;
55537;SDS011;41383;51.418;7.286;2022-07-23T10:40:11;17.23;;;13.57;;
55537;SDS011;41383;51.418;7.286;2022-07-23T10:42:38;16.50;;;12.80;;
55537;SDS011;41383;51.418;7.286;2022-07-23T10:45:50;21.25;;;11.35;;
55537;SDS011;41383;51.418;7.286;2022-07-23T10:48:11;13.45;;;10.90;;
55537;SDS011;41383;51.418;7.286;2022-07-23T10:50:44;12.40;;;10.40;;
55537;SDS011;41383;51.418;7.286;2022-07-23T10:53:47;17.55;;;9.93;;
55537;SDS011;41383;51.418;7.286;2022-07-23T10:59:20;10.73;;;8.95;;
55537;SDS011;41383;51.418;7.286;2022-07-23T11:01:46;14.95;;;8.57;;
55537;SDS011;41383;51.418;7.286;2022-07-23T11:04:12;13.27;;;9.63;;
55537;SDS011;41383;51.418;7.286;2022-07-23T11:12:16;10.40;;;7.07;;
55537;SDS011;41383;51.418;7.286;2022-07-23T11:17:23;10.63;;;7.53;;
55537;SDS011;41383;51.418;7.286;2022-07-23T11:25:07;10.80;;;7.28;;
55537;SDS011;41383;51.418;7.286;2022-07-23T11:27:45;9.27;;;6.07;;
55537;SDS011;41383;51.418;7.286;2022-07-23T11:32:51;9.43;;;6.25;;
55537;SDS011;41383;51.418;7.286;2022-07-23T11:35:27;7.65;;;6.03;;
55537;SDS011;41383;51.418;7.286;2022-07-23T11:37:53;9.38;;;6.93;;
55537;SDS011;41383;51.418;7.286;2022-07-23T11:40:28;7.97;;;5.78;;
55537;SDS011;41383;51.418;7.286;2022-07-23T11:42:57;9.98;;;6.28;;
55537;SDS011;41383;51.418;7.286;2022-07-23T11:45:26;7.50;;;5.57;;
55537;SDS011;41383;51.418;7.286;2022-07-23T11:47:56;8.48;;;4.85;;
55537;SDS011;41383;51.418;7.286;2022-07-23T11:50:22;10.18;;;7.03;;
55537;SDS011;41383;51.418;7.286;2022-07-23T11:52:49;8.75;;;5.40;;
55537;SDS011;41383;51.418;7.286;2022-07-23T11:55:14;8.23;;;6.00;;
55537;SDS011;41383;51.418;7.286;2022-07-23T11:57:42;6.38;;;4.10;;
55537;SDS011;41383;51.418;7.286;2022-07-23T12:02:42;7.97;;;4.80;;
55537;SDS011;41383;51.418;7.286;2022-07-23T12:05:12;6.40;;;3.33;;
55537;SDS011;41383;51.418;7.286;2022-07-23T12:07:41;5.88;;;4.10;;
55537;SDS011;41383;51.418;7.286;2022-07-23T12:10:19;7.40;;;3.90;;
55537;SDS011;41383;51.418;7.286;2022-07-23T12:12:47;6.43;;;4.10;;
55537;SDS011;41383;51.418;7.286;2022-07-23T12:15:17;4.70;;;3.45;;
55537;SDS011;41383;51.418;7.286;2022-07-23T12:17:54;7.47;;;4.90;;
55537;SDS011;41383;51.418;7.286;2022-07-23T12:20:21;7.18;;;4.13;;
55537;SDS011;41383;51.418;7.286;2022-07-23T12:22:49;6.93;;;4.55;;
55537;SDS011;41383;51.418;7.286;2022-07-23T12:25:17;7.85;;;3.63;;
55537;SDS011;41383;51.418;7.286;2022-07-23T12:27:45;8.55;;;3.75;;
55537;SDS011;41383;51.418;7.286;2022-07-23T12:30:26;10.25;;;4.25;;
55537;SDS011;41383;51.418;7.286;2022-07-23T12:32:53;6.13;;;3.03;;
55537;SDS011;41383;51.418;7.286;2022-07-23T12:35:21;5.55;;;3.00;;
55537;SDS011;41383;51.418;7.286;2022-07-23T12:37:48;6.07;;;2.67;;
55537;SDS011;41383;51.418;7.286;2022-07-23T12:45:49;5.57;;;3.08;;
55537;SDS011;41383;51.418;7.286;2022-07-23T12:51:02;8.23;;;3.17;;
55537;SDS011;41383;51.418;7.286;2022-07-23T12:53:33;5.72;;;2.70;;
55537;SDS011;41383;51.418;7.286;2022-07-23T12:56:05;4.63;;;2.70;;
55537;SDS011;41383;51.418;7.286;2022-07-23T12:58:39;6.05;;;2.85;;
55537;SDS011;41383;51.418;7.286;2022-07-23T13:06:37;9.52;;;2.75;;
55537;SDS011;41383;51.418;7.286;2022-07-23T13:09:05;4.30;;;2.63;;
55537;SDS011;41383;51.418;7.286;2022-07-23T13:11:31;3.15;;;1.60;;
55537;SDS011;41383;51.418;7.286;2022-07-23T13:13:58;5.22;;;2.63;;
55537;SDS011;41383;51.418;7.286;2022-07-23T13:16:25;8.38;;;2.80;;
55537;SDS011;41383;51.418;7.286;2022-07-23T13:18:51;4.82;;;2.88;;
55537;SDS011;41383;51.418;7.286;2022-07-23T13:21:16;7.40;;;3.60;;
55537;SDS011;41383;51.418;7.286;2022-07-23T13:23:42;6.55;;;2.95;;
55537;SDS011;41383;51.418;7.286;2022-07-23T13:26:07;4.18;;;2.78;;
55537;SDS011;41383;51.418;7.286;2022-07-23T13:28:33;6.00;;;2.50;;
55537;SDS011;41383;51.418;7.286;2022-07-23T13:30:58;7.53;;;2.70;;
55537;SDS011;41383;51.418;7.286;2022-07-23T13:33:24;6.03;;;3.50;;
55537;SDS011;41383;51.418;7.286;2022-07-23T13:35:50;5.18;;;2.25;;
55537;SDS011;41383;51.418;7.286;2022-07-23T13:38:17;5.45;;;2.53;;
55537;SDS011;41383;51.418;7.286;2022-07-23T13:40:44;13.55;;;3.20;;
55537;SDS011;41383;51.418;7.286;2022-07-23T13:43:12;5.68;;;2.88;;
55537;SDS011;41383;51.418;7.286;2022-07-23T13:45:39;6.63;;;3.65;;
55537;SDS011;41383;51.418;7.286;2022-07-23T13:48:05;3.72;;;2.60;;
55537;SDS011;41383;51.418;7.286;2022-07-23T13:50:31;5.57;;;3.20;;
55537;SDS011;41383;51.418;7.286;2022-07-23T13:53:00;5.90;;;3.30;;
55537;SDS011;41383;51.418;7.286;2022-07-23T13:55:30;12.38;;;3.55;;
55537;SDS011;41383;51.418;7.286;2022-07-23T13:57:56;19.98;;;3.63;;
55537;SDS011;41383;51.418;7.286;2022-07-23T14:00:22;7.18;;;3.20;;
55537;SDS011;41383;51.418;7.286;2022-07-23T14:02:47;15.80;;;3.17;;
55537;SDS011;41383;51.418;7.286;2022-07-23T14:05:12;6.10;;;2.28;;
55537;SDS011;41383;51.418;7.286;2022-07-23T14:07:38;20.80;;;4.97;;
55537;SDS011;41383;51.418;7.286;2022-07-23T14:10:05;6.00;;;3.13;;
55537;SDS011;41383;51.418;7.286;2022-07-23T14:12:31;3.47;;;2.10;;
55537;SDS011;41383;51.418;7.286;2022-07-23T14:14:57;4.18;;;2.85;;
55537;SDS011;41383;51.418;7.286;2022-07-23T14:17:22;5.27;;;2.90;;
55537;SDS011;41383;51.418;7.286;2022-07-23T14:19:47;5.20;;;2.60;;
55537;SDS011;41383;51.418;7.286;2022-07-23T14:22:13;5.00;;;2.28;;
55537;SDS011;41383;51.418;7.286;2022-07-23T14:24:38;4.63;;;2.25;;
55537;SDS011;41383;51.418;7.286;2022-07-23T14:27:04;6.43;;;3.63;;
55537;SDS011;41383;51.418;7.286;2022-07-23T14:29:29;5.63;;;3.00;;
55537;SDS011;41383;51.418;7.286;2022-07-23T14:31:55;5.93;;;2.90;;
55537;SDS011;41383;51.418;7.286;2022-07-23T14:34:20;4.78;;;2.63;;
55537;SDS011;41383;51.418;7.286;2022-07-23T14:36:46;4.63;;;3.07;;
55537;SDS011;41383;51.418;7.286;2022-07-23T14:39:11;4.13;;;2.27;;
55537;SDS011;41383;51.418;7.286;2022-07-23T14:41:37;5.20;;;3.28;;
55537;SDS011;41383;51.418;7.286;2022-07-23T14:44:03;6.10;;;2.50;;
55537;SDS011;41383;51.418;7.286;2022-07-23T14:46:29;5.57;;;2.42;;
55537;SDS011;41383;51.418;7.286;2022-07-23T14:48:55;5.97;;;3.38;;
55537;SDS011;41383;51.418;7.286;2022-07-23T14:51:20;5.50;;;3.38;;
55537;SDS011;41383;51.418;7.286;2022-07-23T14:53:46;6.70;;;2.72;;
55537;SDS011;41383;51.418;7.286;2022-07-23T14:56:11;6.35;;;2.75;;
55537;SDS011;41383;51.418;7.286;2022-07-23T14:58:38;3.55;;;2.60;;
55537;SDS011;41383;51.418;7.286;2022-07-23T15:01:03;5.07;;;2.17;;
55537;SDS011;41383;51.418;7.286;2022-07-23T15:03:29;5.30;;;2.42;;
55537;SDS011;41383;51.418;7.286;2022-07-23T15:05:56;5.67;;;2.63;;
55537;SDS011;41383;51.418;7.286;2022-07-23T15:08:21;7.97;;;3.20;;
55537;SDS011;41383;51.418;7.286;2022-07-23T15:10:46;5.68;;;3.25;;
55537;SDS011;41383;51.418;7.286;2022-07-23T15:13:11;6.00;;;3.17;;
55537;SDS011;41383;51.418;7.286;2022-07-23T15:15:37;7.13;;;3.10;;
55537;SDS011;41383;51.418;7.286;2022-07-23T15:18:03;5.35;;;3.25;;
55537;SDS011;41383;51.418;7.286;2022-07-23T15:20:28;4.65;;;2.72;;
55537;SDS011;41383;51.418;7.286;2022-07-23T15:22:53;9.73;;;2.70;;
55537;SDS011;41383;51.418;7.286;2022-07-23T15:25:19;4.37;;;2.57;;
55537;SDS011;41383;51.418;7.286;2022-07-23T15:27:44;6.45;;;3.72;;